createdAt,value
2023-04-22T00:00:06.446Z,74.21
2023-04-22T00:02:37.355Z,74.26
2023-04-22T00:05:06.477Z,73.91
2023-04-22T00:07:34.936Z,74.04
2023-04-22T00:10:03.421Z,73.05
2023-04-22T00:12:33.060Z,73.27
2023-04-22T00:15:01.462Z,73.77
2023-04-22T00:17:29.875Z,73.31
2023-04-22T00:19:58.206Z,73.44
2023-04-22T00:22:26.599Z,73.32
2023-04-22T00:24:54.831Z,73.93
2023-04-22T00:27:23.101Z,72.78
2023-04-22T00:29:52.771Z,72.50
2023-04-22T00:32:22.648Z,71.46
2023-04-22T00:34:51.130Z,72.09
2023-04-22T00:37:19.597Z,71.36
2023-04-22T00:39:47.879Z,72.48
2023-04-22T00:42:17.489Z,73.15
2023-04-22T00:44:48.532Z,72.53
2023-04-22T00:47:18.751Z,74.12
2023-04-22T00:49:48.963Z,77.02
2023-04-22T00:52:17.267Z,78.05
2023-04-22T00:54:46.912Z,80.25
2023-04-22T00:57:15.124Z,80.87
2023-04-22T00:59:44.266Z,80.37
2023-04-22T01:02:13.024Z,80.11
2023-04-22T01:04:43.105Z,78.88
2023-04-22T01:07:11.360Z,78.91
2023-04-22T01:09:42.659Z,78.23
2023-04-22T01:12:10.968Z,78.10
2023-04-22T01:14:39.464Z,78.01
2023-04-22T01:17:10.222Z,78.50
2023-04-22T01:19:38.927Z,78.85
2023-04-22T01:22:09.673Z,79.34
2023-04-22T01:24:39.605Z,80.35
2023-04-22T01:27:07.935Z,81.17
2023-04-22T01:29:38.175Z,82.33
2023-04-22T01:32:07.702Z,82.35
2023-04-22T01:34:36.196Z,82.59
2023-04-22T01:37:04.626Z,82.62
2023-04-22T01:39:33.080Z,81.78
2023-04-22T01:42:04.477Z,79.31
2023-04-22T01:44:32.705Z,78.42
2023-04-22T01:47:00.931Z,79.58
2023-04-22T01:49:29.168Z,80.22
2023-04-22T01:51:58.625Z,80.60
2023-04-22T01:54:27.033Z,81.19
2023-04-22T01:56:56.185Z,81.36
2023-04-22T01:59:25.874Z,81.25
2023-04-22T02:01:54.357Z,81.51
2023-04-22T02:04:22.648Z,81.45
2023-04-22T02:06:52.458Z,81.70
2023-04-22T02:09:20.700Z,81.59
2023-04-22T02:11:49.184Z,81.74
2023-04-22T02:14:17.522Z,82.01
2023-04-22T02:16:47.193Z,82.06
2023-04-22T02:19:15.476Z,82.25
2023-04-22T02:21:43.740Z,82.56
2023-04-22T02:24:12.149Z,82.64
2023-04-22T02:26:40.409Z,82.05
2023-04-22T02:29:08.725Z,81.95
2023-04-22T02:31:37.076Z,81.61
2023-04-22T02:34:06.958Z,81.54
2023-04-22T02:36:35.799Z,81.83
2023-04-22T02:39:05.685Z,81.84
2023-04-22T02:41:34.132Z,82.48
2023-04-22T02:44:02.397Z,82.60
2023-04-22T02:46:30.929Z,82.61
2023-04-22T02:48:59.249Z,81.77
2023-04-22T02:51:29.190Z,81.87
2023-04-22T02:53:57.525Z,82.39
2023-04-22T02:56:26.744Z,82.14
2023-04-22T02:58:55.002Z,82.88
2023-04-22T03:01:23.325Z,83.16
2023-04-22T03:03:51.930Z,82.27
2023-04-22T03:06:20.886Z,83.41
2023-04-22T03:08:50.950Z,84.14
2023-04-22T03:11:19.170Z,83.66
2023-04-22T03:13:47.783Z,83.22
2023-04-22T03:16:16.039Z,82.57
2023-04-22T03:18:44.308Z,82.65
2023-04-22T03:21:12.620Z,82.15
2023-04-22T03:23:41.084Z,81.59
2023-04-22T03:26:10.743Z,80.99
2023-04-22T03:28:38.991Z,80.48
2023-04-22T03:31:07.302Z,79.89
2023-04-22T03:33:35.690Z,79.41
2023-04-22T03:36:04.179Z,77.74
2023-04-22T03:38:32.460Z,76.56
2023-04-22T03:41:00.934Z,75.87
2023-04-22T03:43:30.563Z,75.02
2023-04-22T03:46:00.782Z,74.88
2023-04-22T03:48:30.154Z,73.02
2023-04-22T03:50:58.519Z,72.02
2023-04-22T03:53:26.884Z,70.46
2023-04-22T03:55:55.139Z,69.10
2023-04-22T03:58:23.349Z,66.01
2023-04-22T04:00:53.204Z,64.04
2023-04-22T04:03:21.595Z,62.93
2023-04-22T04:05:50.104Z,61.75
2023-04-22T04:08:18.359Z,60.94
2023-04-22T04:10:46.800Z,60.23
2023-04-22T04:13:14.989Z,60.27
2023-04-22T04:15:43.697Z,61.57
2023-04-22T04:18:13.876Z,58.61
2023-04-22T04:20:42.097Z,58.62
2023-04-22T04:23:10.360Z,57.34
2023-04-22T04:25:38.898Z,57.86
2023-04-22T04:28:09.556Z,55.92
2023-04-22T04:30:37.784Z,56.51
2023-04-22T04:33:07.483Z,53.79
2023-04-22T04:35:38.863Z,52.57
2023-04-22T04:38:07.352Z,52.36
2023-04-22T04:40:36.183Z,49.00
2023-04-22T04:43:08.460Z,48.42
2023-04-22T04:45:37.819Z,48.93
2023-04-22T04:48:07.175Z,46.64
2023-04-22T04:50:36.944Z,45.43
2023-04-22T04:53:05.211Z,51.34
2023-04-22T04:55:33.657Z,47.47
2023-04-22T04:58:01.972Z,51.09
2023-04-22T05:00:30.527Z,51.29
2023-04-22T05:02:58.909Z,48.89
2023-04-22T05:05:27.316Z,52.85
2023-04-22T05:07:57.124Z,51.66
2023-04-22T05:10:25.573Z,48.22
2023-04-22T05:12:53.933Z,49.83
2023-04-22T05:15:22.195Z,50.20
2023-04-22T05:17:50.665Z,49.64
2023-04-22T05:20:18.885Z,50.83
2023-04-22T05:22:47.115Z,49.72
2023-04-22T05:25:17.154Z,50.48
2023-04-22T05:27:45.417Z,53.61
2023-04-22T05:30:14.039Z,55.39
2023-04-22T05:32:42.339Z,55.96
2023-04-22T05:35:12.136Z,58.50
2023-04-22T05:37:40.646Z,56.63
2023-04-22T05:40:09.920Z,53.73
2023-04-22T05:42:39.623Z,56.58
2023-04-22T05:45:09.282Z,53.41
2023-04-22T05:47:37.798Z,53.57
2023-04-22T05:50:07.026Z,50.54
2023-04-22T05:52:35.260Z,46.47
2023-04-22T05:55:03.547Z,45.02
2023-04-22T05:57:33.140Z,42.48
2023-04-22T06:00:05.431Z,43.43
2023-04-22T06:02:33.772Z,43.94
2023-04-22T06:05:02.287Z,42.03
2023-04-22T06:07:30.859Z,40.13
2023-04-22T06:10:04.434Z,41.95
2023-04-22T06:12:34.672Z,44.01
2023-04-22T06:15:04.838Z,44.37
2023-04-22T06:17:33.131Z,41.32
2023-04-22T06:20:01.787Z,45.29
2023-04-22T06:22:30.059Z,47.02
2023-04-22T06:24:58.292Z,47.77
2023-04-22T06:27:26.722Z,51.14
2023-04-22T06:29:54.987Z,51.43
2023-04-22T06:32:24.590Z,50.51
2023-04-22T06:34:53.012Z,51.70
2023-04-22T06:37:21.301Z,50.90
2023-04-22T06:39:49.704Z,50.68
2023-04-22T06:42:18.116Z,50.06
2023-04-22T06:44:46.405Z,48.65
2023-04-22T06:47:14.802Z,49.61
2023-04-22T06:49:45.579Z,51.59
2023-04-22T06:52:13.849Z,50.47
2023-04-22T06:54:42.101Z,51.39
2023-04-22T06:57:10.440Z,50.45
2023-04-22T06:59:39.279Z,51.47
2023-04-22T07:02:09.064Z,52.22
2023-04-22T07:04:37.580Z,53.70
2023-04-22T07:07:07.588Z,53.78
2023-04-22T07:09:36.426Z,54.93
2023-04-22T07:12:04.827Z,54.91
2023-04-22T07:14:33.646Z,55.56
2023-04-22T07:17:01.946Z,55.62
2023-04-22T07:19:30.231Z,55.28
2023-04-22T07:21:58.518Z,56.37
2023-04-22T07:24:28.169Z,56.83
2023-04-22T07:26:56.532Z,57.77
2023-04-22T07:29:24.823Z,59.29
2023-04-22T07:31:53.207Z,58.22
2023-04-22T07:34:21.676Z,57.67
2023-04-22T07:36:52.296Z,57.01
2023-04-22T07:39:20.709Z,58.17
2023-04-22T07:41:50.995Z,58.44
2023-04-22T07:44:21.821Z,58.13
2023-04-22T07:46:50.422Z,58.45
2023-04-22T07:49:19.980Z,58.06
2023-04-22T07:51:48.377Z,57.71
2023-04-22T07:54:16.649Z,58.28
2023-04-22T07:56:45.184Z,57.94
2023-04-22T07:59:14.927Z,56.70
2023-04-22T08:01:43.197Z,56.33
2023-04-22T08:04:11.880Z,53.84
2023-04-22T08:06:40.412Z,54.03
2023-04-22T08:09:10.399Z,55.96
2023-04-22T08:11:38.695Z,54.83
2023-04-22T08:14:07.060Z,53.49
2023-04-22T08:16:36.769Z,53.72
2023-04-22T08:19:05.071Z,53.36
2023-04-22T08:21:33.562Z,51.96
2023-04-22T08:24:01.841Z,51.74
2023-04-22T08:26:30.084Z,52.18
2023-04-22T08:28:58.336Z,52.16
2023-04-22T08:31:26.807Z,51.94
2023-04-22T08:33:56.740Z,49.60
2023-04-22T08:36:26.816Z,49.56
2023-04-22T08:38:55.917Z,48.72
2023-04-22T08:41:25.362Z,47.34
2023-04-22T08:43:54.413Z,48.75
2023-04-22T08:46:24.194Z,48.40
2023-04-22T08:48:52.897Z,49.73
2023-04-22T08:51:23.694Z,49.66
2023-04-22T08:53:51.963Z,47.47
2023-04-22T08:56:20.898Z,48.21
2023-04-22T08:58:49.800Z,48.19
2023-04-22T09:01:19.148Z,46.86
2023-04-22T09:03:50.209Z,45.97
2023-04-22T09:06:22.904Z,46.25
2023-04-22T09:08:51.407Z,45.71
2023-04-22T09:11:19.897Z,47.17
2023-04-22T09:13:49.052Z,48.19
2023-04-22T09:16:17.365Z,47.21
2023-04-22T09:18:46.285Z,47.99
2023-04-22T09:21:15.204Z,48.01
2023-04-22T09:23:50.694Z,48.73
2023-04-22T09:26:21.983Z,49.03
2023-04-22T09:28:51.757Z,49.19
2023-04-22T09:31:20.110Z,48.29
2023-04-22T09:33:52.915Z,47.54
2023-04-22T09:36:24.468Z,47.73
2023-04-22T09:38:59.535Z,47.42
2023-04-22T09:41:31.701Z,47.41
2023-04-22T09:44:01.577Z,45.54
2023-04-22T09:46:31.064Z,45.47
2023-04-22T09:49:00.634Z,45.65
2023-04-22T09:51:31.098Z,46.70
2023-04-22T09:54:04.351Z,46.02
2023-04-22T09:56:48.291Z,45.85
2023-04-22T09:59:21.751Z,45.77
2023-04-22T10:01:50.826Z,46.24
2023-04-22T10:04:21.747Z,47.09
2023-04-22T10:06:50.618Z,47.49
2023-04-22T10:09:22.489Z,45.88
2023-04-22T10:11:52.481Z,43.99
2023-04-22T10:14:21.585Z,45.09
2023-04-22T10:16:51.929Z,46.38
2023-04-22T10:19:22.816Z,46.63
2023-04-22T10:21:54.834Z,47.32
2023-04-22T10:24:28.170Z,45.26
2023-04-22T10:26:57.959Z,47.04
2023-04-22T10:29:27.667Z,44.91
2023-04-22T10:31:58.527Z,43.49
2023-04-22T10:34:26.896Z,44.81
2023-04-22T10:36:57.426Z,45.19
2023-04-22T10:39:29.026Z,43.94
2023-04-22T10:42:05.641Z,43.01
2023-04-22T10:44:48.800Z,43.76
2023-04-22T10:47:30.888Z,43.87
2023-04-22T10:50:20.786Z,44.07
2023-04-22T10:52:51.153Z,46.58
2023-04-22T10:55:21.467Z,47.85
2023-04-22T10:57:51.610Z,47.69
2023-04-22T11:00:53.251Z,45.94
2023-04-22T11:03:28.618Z,44.94
2023-04-22T11:06:27.909Z,44.70
2023-04-22T11:09:13.041Z,44.88
2023-04-22T11:11:42.716Z,45.70
2023-04-22T11:14:12.072Z,45.73
2023-04-22T11:16:40.322Z,45.00
2023-04-22T11:19:08.586Z,45.02
2023-04-22T11:21:37.038Z,45.15
2023-04-22T11:24:06.301Z,45.66
2023-04-22T11:26:36.334Z,45.83
2023-04-22T11:29:06.210Z,44.84
2023-04-22T11:31:34.526Z,44.46
2023-04-22T11:34:02.784Z,46.13
2023-04-22T11:36:31.617Z,46.67
2023-04-22T11:38:59.777Z,47.34
2023-04-22T11:41:30.135Z,47.34
2023-04-22T11:43:58.442Z,47.84
2023-04-22T11:46:32.021Z,47.33
2023-04-22T11:49:16.380Z,47.17
2023-04-22T11:51:55.700Z,46.13
2023-04-22T11:54:34.073Z,45.51
2023-04-22T11:57:04.576Z,46.89
2023-04-22T11:59:32.827Z,50.13
2023-04-22T12:02:07.098Z,51.38
2023-04-22T12:04:38.598Z,53.15
2023-04-22T12:07:07.224Z,52.63
2023-04-22T12:09:35.693Z,55.01
2023-04-22T12:12:05.314Z,56.01
2023-04-22T12:14:33.934Z,55.93
2023-04-22T12:17:06.606Z,59.22
2023-04-22T12:19:34.874Z,75.42
2023-04-22T12:22:03.182Z,78.28
2023-04-22T12:24:31.977Z,83.24
2023-04-22T12:27:00.201Z,86.96
2023-04-22T12:29:29.325Z,91.75
2023-04-22T12:31:57.661Z,95.48
2023-04-22T12:34:27.336Z,100.00
2023-04-22T12:36:56.420Z,100.00
2023-04-22T12:39:24.881Z,100.00
2023-04-22T12:41:53.147Z,100.00
2023-04-22T12:44:22.098Z,100.00
2023-04-22T12:46:52.366Z,100.00
2023-04-22T12:49:20.746Z,100.00
2023-04-22T12:51:50.575Z,100.00
2023-04-22T12:54:18.981Z,100.00
2023-04-22T12:56:48.102Z,100.00
2023-04-22T12:59:16.685Z,100.00
2023-04-22T13:01:44.995Z,100.00
2023-04-22T13:04:13.449Z,100.00
2023-04-22T13:06:44.074Z,100.00
2023-04-22T13:09:14.173Z,100.00
2023-04-22T13:11:42.350Z,100.00
2023-04-22T13:14:10.820Z,100.00
2023-04-22T13:16:39.276Z,100.00
2023-04-22T13:19:07.834Z,100.00
2023-04-22T13:21:36.364Z,100.00
2023-04-22T13:24:05.947Z,100.00
2023-04-22T13:26:35.904Z,100.00
2023-04-22T13:29:04.172Z,100.00
2023-04-22T13:31:32.576Z,100.00
2023-04-22T13:34:00.906Z,100.00
2023-04-22T13:36:29.333Z,100.00
2023-04-22T13:38:58.698Z,100.00
2023-04-22T13:41:27.023Z,100.00
2023-04-22T13:43:59.731Z,100.00
2023-04-22T13:46:28.341Z,100.00
2023-04-22T13:48:56.875Z,100.00
2023-04-22T13:51:25.097Z,100.00
2023-04-22T13:53:53.440Z,100.00
2023-04-22T13:56:21.746Z,100.00
2023-04-22T13:58:50.230Z,100.00
2023-04-22T14:01:19.944Z,100.00
2023-04-22T14:03:50.823Z,100.00
2023-04-22T14:06:19.102Z,100.00
2023-04-22T14:08:47.594Z,100.00
2023-04-22T14:11:15.939Z,100.00
2023-04-22T14:13:45.222Z,100.00
2023-04-22T14:16:13.767Z,100.00
2023-04-22T14:18:45.743Z,100.00
2023-04-22T14:21:14.524Z,100.00
2023-04-22T14:23:43.605Z,100.00
2023-04-22T14:26:13.768Z,100.00
2023-04-22T14:28:42.631Z,100.00
2023-04-22T14:31:11.957Z,100.00
2023-04-22T14:33:40.419Z,100.00
2023-04-22T14:36:10.308Z,100.00
2023-04-22T14:38:38.664Z,100.00
2023-04-22T14:41:07.213Z,100.00
2023-04-22T14:43:36.192Z,100.00
2023-04-22T14:46:04.587Z,100.00
2023-04-22T14:48:35.411Z,100.00
2023-04-22T14:51:03.969Z,100.00
2023-04-22T14:53:33.635Z,100.00
2023-04-22T14:56:02.372Z,100.00
2023-04-22T14:58:31.879Z,100.00
2023-04-22T15:01:00.570Z,100.00
2023-04-22T15:03:29.015Z,100.00
2023-04-22T15:05:58.105Z,100.00
2023-04-22T15:08:26.430Z,100.00
2023-04-22T15:10:56.191Z,100.00
2023-04-22T15:13:24.405Z,100.00
2023-04-22T15:15:53.154Z,100.00
2023-04-22T15:18:21.399Z,100.00
2023-04-22T15:20:49.690Z,100.00
2023-04-22T15:23:18.126Z,100.00
2023-04-22T15:25:46.431Z,100.00
2023-04-22T15:28:16.145Z,100.00
2023-04-22T15:30:44.469Z,100.00
2023-04-22T15:33:12.786Z,100.00
2023-04-22T15:35:42.818Z,100.00
2023-04-22T15:38:11.251Z,100.00
2023-04-22T15:40:39.615Z,100.00
2023-04-22T15:43:07.856Z,100.00
2023-04-22T15:45:37.569Z,100.00
2023-04-22T15:48:06.876Z,100.00
2023-04-22T15:50:35.337Z,100.00
2023-04-22T15:53:03.620Z,100.00
2023-04-22T15:55:31.809Z,100.00
2023-04-22T15:58:00.745Z,100.00
2023-04-22T16:00:29.117Z,100.00
2023-04-22T16:02:59.528Z,100.00
2023-04-22T16:05:28.761Z,100.00
2023-04-22T16:07:57.011Z,100.00
2023-04-22T16:10:26.462Z,100.00
2023-04-22T16:12:54.667Z,100.00
2023-04-22T16:15:26.201Z,100.00
2023-04-22T16:17:54.542Z,100.00
2023-04-22T16:20:24.379Z,100.00
2023-04-22T16:22:52.588Z,100.00
2023-04-22T16:25:21.259Z,100.00
2023-04-22T16:27:49.723Z,100.00
2023-04-22T16:30:18.147Z,100.00
2023-04-22T16:32:46.420Z,100.00
2023-04-22T16:35:14.667Z,100.00
2023-04-22T16:37:44.945Z,100.00
2023-04-22T16:40:13.588Z,100.00
2023-04-22T16:42:42.148Z,100.00
2023-04-22T16:45:10.837Z,100.00
2023-04-22T16:47:39.258Z,100.00
2023-04-22T16:50:10.512Z,100.00
2023-04-22T16:52:38.735Z,100.00
2023-04-22T16:55:09.592Z,100.00
2023-04-22T16:57:38.005Z,100.00
2023-04-22T17:00:07.579Z,100.00
2023-04-22T17:02:35.992Z,100.00
2023-04-22T17:05:04.581Z,100.00
2023-04-22T17:07:33.096Z,100.00
2023-04-22T17:10:01.489Z,100.00
2023-04-22T17:12:31.152Z,100.00
2023-04-22T17:14:59.372Z,100.00
2023-04-22T17:17:27.648Z,100.00
2023-04-22T17:19:55.991Z,100.00
2023-04-22T17:22:24.912Z,100.00
2023-04-22T17:24:53.357Z,100.00
2023-04-22T17:27:21.615Z,100.00
2023-04-22T17:29:51.275Z,100.00
2023-04-22T17:32:19.964Z,100.00
2023-04-22T17:34:48.311Z,100.00
2023-04-22T17:37:16.519Z,100.00
2023-04-22T17:39:44.778Z,100.00
2023-04-22T17:42:14.004Z,100.00
2023-04-22T17:44:42.832Z,100.00
2023-04-22T17:47:12.720Z,100.00
2023-04-22T17:49:41.357Z,100.00
2023-04-22T17:52:10.073Z,100.00
2023-04-22T17:54:38.340Z,100.00
2023-04-22T17:57:06.610Z,100.00
2023-04-22T17:59:36.302Z,100.00
2023-04-22T18:02:05.098Z,100.00
2023-04-22T18:04:35.032Z,100.00
2023-04-22T18:07:03.198Z,100.00
2023-04-22T18:09:31.561Z,100.00
2023-04-22T18:11:59.834Z,100.00
2023-04-22T18:14:28.155Z,100.00
2023-04-22T18:16:56.611Z,100.00
2023-04-22T18:19:24.978Z,100.00
2023-04-22T18:22:00.157Z,100.00
2023-04-22T18:24:28.948Z,100.00
2023-04-22T18:26:57.269Z,100.00
2023-04-22T18:29:26.141Z,100.00
2023-04-22T18:31:54.591Z,100.00
2023-04-22T18:34:22.949Z,100.00
2023-04-22T18:36:51.769Z,100.00
2023-04-22T18:39:21.587Z,100.00
2023-04-22T18:41:50.240Z,100.00
2023-04-22T18:44:18.861Z,100.00
2023-04-22T18:46:47.406Z,100.00
2023-04-22T18:49:16.215Z,100.00
2023-04-22T18:51:46.752Z,100.00
2023-04-22T18:54:15.004Z,100.00
2023-04-22T18:56:45.957Z,100.00
2023-04-22T18:59:14.850Z,100.00
2023-04-22T19:01:43.938Z,100.00
2023-04-22T19:04:12.538Z,100.00
2023-04-22T19:06:41.500Z,100.00
2023-04-22T19:09:09.939Z,100.00
2023-04-22T19:11:38.254Z,100.00
2023-04-22T19:14:08.046Z,100.00
2023-04-22T19:16:36.478Z,100.00
2023-04-22T19:19:04.797Z,100.00
2023-04-22T19:21:33.442Z,100.00
2023-04-22T19:24:01.713Z,100.00
2023-04-22T19:26:30.145Z,100.00
2023-04-22T19:28:58.596Z,100.00
2023-04-22T19:31:29.135Z,100.00
2023-04-22T19:33:58.042Z,100.00
2023-04-22T19:36:28.265Z,100.00
2023-04-22T19:38:56.599Z,100.00
2023-04-22T19:41:25.251Z,100.00
2023-04-22T19:43:55.484Z,100.00
2023-04-22T19:46:23.937Z,100.00
2023-04-22T19:48:54.412Z,100.00
2023-04-22T19:51:23.316Z,100.00
2023-04-22T19:53:52.236Z,100.00
2023-04-22T19:56:20.690Z,100.00
2023-04-22T19:58:49.196Z,100.00
2023-04-22T20:01:18.057Z,100.00
2023-04-22T20:03:47.112Z,100.00
2023-04-22T20:06:17.679Z,100.00
2023-04-22T20:08:47.848Z,100.00
2023-04-22T20:11:16.549Z,100.00
2023-04-22T20:13:47.921Z,100.00
2023-04-22T20:16:19.344Z,100.00
2023-04-22T20:18:48.416Z,100.00
2023-04-22T20:21:20.082Z,100.00
2023-04-22T20:23:51.417Z,100.00
2023-04-22T20:26:20.893Z,100.00
2023-04-22T20:28:52.136Z,100.00
2023-04-22T20:31:23.207Z,100.00
2023-04-22T20:33:52.744Z,100.00
2023-04-22T20:36:24.127Z,100.00
2023-04-22T20:38:55.008Z,100.00
2023-04-22T20:41:24.842Z,100.00
2023-04-22T20:43:53.259Z,100.00
2023-04-22T20:46:23.243Z,100.00
2023-04-22T20:48:51.858Z,100.00
2023-04-22T20:51:21.526Z,100.00
2023-04-22T20:53:50.704Z,100.00
2023-04-22T20:56:19.725Z,100.00
2023-04-22T20:58:48.397Z,100.00
2023-04-22T21:01:16.976Z,100.00
2023-04-22T21:03:51.584Z,100.00
2023-04-22T21:06:22.274Z,100.00
2023-04-22T21:08:50.864Z,100.00
2023-04-22T21:11:19.806Z,100.00
2023-04-22T21:13:49.327Z,100.00
2023-04-22T21:16:20.023Z,100.00
2023-04-22T21:18:50.141Z,100.00
2023-04-22T21:21:19.252Z,100.00
2023-04-22T21:23:49.527Z,100.00
2023-04-22T21:26:19.001Z,100.00
2023-04-22T21:28:47.729Z,100.00
2023-04-22T21:31:16.437Z,100.00
2023-04-22T21:33:44.863Z,100.00
2023-04-22T21:36:13.179Z,100.00
2023-04-22T21:38:41.475Z,100.00
2023-04-22T21:41:11.182Z,100.00
2023-04-22T21:43:39.665Z,100.00
2023-04-22T21:46:08.490Z,100.00
2023-04-22T21:48:36.729Z,100.00
2023-04-22T21:51:05.331Z,100.00
2023-04-22T21:53:34.106Z,100.00
2023-04-22T21:56:02.626Z,100.00
2023-04-22T21:58:32.264Z,100.00
2023-04-22T22:01:00.590Z,100.00
2023-04-22T22:03:28.951Z,100.00
2023-04-22T22:05:57.906Z,100.00
2023-04-22T22:08:26.866Z,100.00
2023-04-22T22:10:55.137Z,100.00
2023-04-22T22:13:23.693Z,100.00
2023-04-22T22:15:55.446Z,100.00
2023-04-22T22:18:23.886Z,100.00
2023-04-22T22:20:52.143Z,100.00
2023-04-22T22:23:21.625Z,100.00
2023-04-22T22:25:50.164Z,100.00
2023-04-22T22:28:18.612Z,100.00
2023-04-22T22:30:46.925Z,100.00
2023-04-22T22:33:16.774Z,100.00
2023-04-22T22:35:45.149Z,100.00
2023-04-22T22:38:13.431Z,100.00
2023-04-22T22:40:41.672Z,100.00
2023-04-22T22:43:09.980Z,100.00
2023-04-22T22:45:38.317Z,100.00
2023-04-22T22:48:07.149Z,100.00
2023-04-22T22:50:36.896Z,100.00
2023-04-22T22:53:05.101Z,100.00
2023-04-22T22:55:34.188Z,100.00
2023-04-22T22:58:02.508Z,100.00
2023-04-22T23:00:31.054Z,100.00
2023-04-22T23:02:59.483Z,100.00
2023-04-22T23:05:28.048Z,100.00
2023-04-22T23:07:57.882Z,100.00
2023-04-22T23:10:26.159Z,100.00
2023-04-22T23:12:54.407Z,100.00
2023-04-22T23:15:22.771Z,100.00
2023-04-22T23:17:51.654Z,100.00
2023-04-22T23:20:21.125Z,100.00
2023-04-22T23:22:51.615Z,100.00
2023-04-22T23:25:21.810Z,100.00
2023-04-22T23:27:50.968Z,99.58
2023-04-22T23:30:19.951Z,99.61
2023-04-22T23:32:49.697Z,98.63
2023-04-22T23:35:20.620Z,96.64
2023-04-22T23:37:52.067Z,96.73
2023-04-22T23:40:21.846Z,97.38
2023-04-22T23:42:50.232Z,97.32
2023-04-22T23:45:18.858Z,97.86
2023-04-22T23:47:47.368Z,97.94
2023-04-22T23:50:16.103Z,98.27
2023-04-22T23:52:46.775Z,98.29
2023-04-22T23:55:16.184Z,97.42
2023-04-22T23:57:46.507Z,97.80
